KCGF/CGF METAR and TAF weather

Enter ICAO airport designator
Station Type Date Time Source
KCGF METAR 2020/04/09 20:45 UTC NOAA

KCGF 092045Z 29017G24KT 10SM BKN050 07/01 A2954


Station Type Date Time Source
KCGF Decoded METAR 2020/04/09 20:45 UTC NOAA

Cleveland / Cuyahoga, OH, United States (KCGF) 41-34N 081-29W
Apr 09, 2020 - 04:45 PM EDT / 2020.04.09 2045 UTC
Wind: from the WNW (290 degrees) at 20 MPH (17 KT) gusting to 28 MPH (24 KT):0
Visibility: 10 mile(s):0
Sky conditions: mostly cloudy
Temperature: 44 F (7 C)
Dew Point: 33 F (1 C)
Relative Humidity: 65%
Pressure (altimeter): 29.54 in. Hg (1000 hPa)
ob: KCGF 092045Z 29017G24KT 10SM BKN050 07/01 A2954
cycle: 21

Station Type Date Time Source
KCGF TAF 2016/07/19 12:36 UTC NOAA

TAF KCGF 191136Z 1912/2012 VRB05KT P6SM SCT080
FM191400 33008KT P6SM SCT040
FM191900 35008KT P6SM SCT060
FM200000 04003KT P6SM SCT080
FM200700 14003KT P6SM SKC

Example: see airport list